createdAt,value
2016-09-08T00:00:21.979Z,0.00
2016-09-08T00:01:22.364Z,0.00
2016-09-08T00:02:23.002Z,0.00
2016-09-08T00:03:23.482Z,0.00
2016-09-08T00:04:24.136Z,0.00
2016-09-08T00:05:24.363Z,0.00
2016-09-08T00:06:24.889Z,0.00
2016-09-08T00:07:25.349Z,0.00
2016-09-08T00:08:25.997Z,0.00
2016-09-08T00:09:26.342Z,0.00
2016-09-08T00:10:27.006Z,0.00
2016-09-08T00:11:27.525Z,0.00
2016-09-08T00:12:27.855Z,0.00
2016-09-08T00:13:28.327Z,0.00
2016-09-08T00:14:28.993Z,0.00
2016-09-08T00:15:29.631Z,0.00
2016-09-08T00:16:29.991Z,0.00
2016-09-08T00:17:30.347Z,0.00
2016-09-08T00:18:30.997Z,0.00
2016-09-08T00:19:31.366Z,0.00
2016-09-08T00:20:31.988Z,0.00
2016-09-08T00:21:32.350Z,0.00
2016-09-08T00:22:32.829Z,0.00
2016-09-08T00:23:33.346Z,0.00
2016-09-08T00:24:34.004Z,0.00
2016-09-08T00:25:34.485Z,0.00
2016-09-08T00:26:34.859Z,0.00
2016-09-08T00:27:35.478Z,0.00
2016-09-08T00:28:36.125Z,0.00
2016-09-08T00:29:36.351Z,0.00
2016-09-08T00:30:36.829Z,0.00
2016-09-08T00:31:37.356Z,0.00
2016-09-08T00:32:37.865Z,0.00
2016-09-08T00:33:38.353Z,0.00
2016-09-08T00:34:38.840Z,0.00
2016-09-08T00:35:39.362Z,0.00
2016-09-08T00:36:40.009Z,0.00
2016-09-08T00:37:40.494Z,0.00
2016-09-08T00:38:40.889Z,0.00
2016-09-08T00:39:41.374Z,0.00
2016-09-08T00:40:41.997Z,0.00
2016-09-08T00:41:42.495Z,0.00
2016-09-08T00:42:43.036Z,0.00
2016-09-08T00:43:43.348Z,0.00
2016-09-08T00:44:44.030Z,0.00
2016-09-08T00:45:44.390Z,0.00
2016-09-08T00:46:44.848Z,0.00
2016-09-08T00:47:45.366Z,0.00
2016-09-08T00:48:45.991Z,0.00
2016-09-08T00:49:46.348Z,0.00
2016-09-08T00:50:47.012Z,0.00
2016-09-08T00:51:47.346Z,0.00
2016-09-08T00:52:48.001Z,0.00
2016-09-08T00:53:48.498Z,0.00
2016-09-08T00:54:48.843Z,0.00
2016-09-08T00:55:49.499Z,0.00
2016-09-08T00:56:50.005Z,0.00
2016-09-08T00:57:50.359Z,0.00
2016-09-08T00:58:50.846Z,0.00
2016-09-08T00:59:51.661Z,0.00
2016-09-08T01:00:52.002Z,0.00
2016-09-08T01:01:52.368Z,0.00
2016-09-08T01:02:53.055Z,0.00
2016-09-08T01:03:53.356Z,0.00
2016-09-08T01:04:53.888Z,0.00
2016-09-08T01:05:54.514Z,0.00
2016-09-08T01:06:54.878Z,0.00
2016-09-08T01:07:55.396Z,0.00
2016-09-08T01:08:56.015Z,0.00
2016-09-08T01:09:56.403Z,0.00
2016-09-08T01:10:56.867Z,0.00
2016-09-08T01:11:57.366Z,0.00
2016-09-08T01:12:58.021Z,0.00
2016-09-08T01:13:58.674Z,0.00
2016-09-08T01:14:58.871Z,0.00
2016-09-08T01:15:59.365Z,0.00
2016-09-08T01:17:00.009Z,0.00
2016-09-08T01:18:00.366Z,0.00
2016-09-08T01:19:00.877Z,0.00
2016-09-08T01:20:01.361Z,0.00
2016-09-08T01:21:01.865Z,0.00
2016-09-08T01:22:02.375Z,0.00
2016-09-08T01:23:03.011Z,0.00
2016-09-08T01:24:03.503Z,0.00
2016-09-08T01:25:03.854Z,0.00
2016-09-08T01:26:04.390Z,0.00
2016-09-08T01:27:04.865Z,0.00
2016-09-08T01:28:05.369Z,0.00
2016-09-08T01:29:06.001Z,0.00
2016-09-08T01:30:06.350Z,0.00
2016-09-08T01:31:06.874Z,0.00
2016-09-08T01:32:07.355Z,0.00
2016-09-08T01:33:08.181Z,0.00
2016-09-08T01:34:08.529Z,0.00
2016-09-08T01:35:08.894Z,0.00
2016-09-08T01:36:09.500Z,0.00
2016-09-08T01:37:09.854Z,0.00
2016-09-08T01:38:10.521Z,0.00
2016-09-08T01:39:10.874Z,0.00
2016-09-08T01:40:11.499Z,0.00
2016-09-08T01:41:11.846Z,0.00
2016-09-08T01:42:13.425Z,0.00
2016-09-08T01:43:12.852Z,0.00
2016-09-08T01:44:13.498Z,0.00
2016-09-08T01:45:14.001Z,0.00
2016-09-08T01:46:14.527Z,0.00
2016-09-08T01:47:14.865Z,0.00
2016-09-08T01:48:15.508Z,0.00
2016-09-08T01:49:16.047Z,0.00
2016-09-08T01:50:16.371Z,0.00
2016-09-08T01:51:17.014Z,0.00
2016-09-08T01:52:17.398Z,0.00
2016-09-08T01:53:17.855Z,0.00
2016-09-08T01:54:18.374Z,0.00
2016-09-08T01:55:19.002Z,0.00
2016-09-08T01:56:19.516Z,0.00
2016-09-08T01:57:20.015Z,0.00
2016-09-08T01:58:20.648Z,0.00
2016-09-08T01:59:21.000Z,0.00
2016-09-08T02:00:21.503Z,0.00
2016-09-08T02:01:24.870Z,0.00
2016-09-08T02:02:22.345Z,0.00
2016-09-08T02:03:23.024Z,0.00
2016-09-08T02:04:23.516Z,0.00
2016-09-08T02:05:23.996Z,0.00
2016-09-08T02:06:24.375Z,0.00
2016-09-08T02:07:24.998Z,0.00
2016-09-08T02:08:25.667Z,0.00
2016-09-08T02:09:25.843Z,0.00
2016-09-08T02:10:26.491Z,0.00
2016-09-08T02:11:27.000Z,0.00
2016-09-08T02:12:27.342Z,0.00
2016-09-08T02:13:27.844Z,0.00
2016-09-08T02:14:28.489Z,0.00
2016-09-08T02:15:28.853Z,0.00
2016-09-08T02:16:29.350Z,0.00
2016-09-08T02:17:29.988Z,0.00
2016-09-08T02:18:30.506Z,0.00
2016-09-08T02:19:30.840Z,0.00
2016-09-08T02:20:31.367Z,0.00
2016-09-08T02:21:31.865Z,0.00
2016-09-08T02:22:32.354Z,0.00
2016-09-08T02:23:32.881Z,0.00
2016-09-08T02:24:33.379Z,0.00
2016-09-08T02:25:34.014Z,0.00
2016-09-08T02:26:34.519Z,0.00
2016-09-08T02:27:34.898Z,0.00
2016-09-08T02:28:35.382Z,0.00
2016-09-08T02:29:36.010Z,0.00
2016-09-08T02:30:38.462Z,0.00
2016-09-08T02:31:37.185Z,0.00
2016-09-08T02:32:37.523Z,0.00
2016-09-08T02:33:38.019Z,0.00
2016-09-08T02:34:38.375Z,0.00
2016-09-08T02:35:38.858Z,0.00
2016-09-08T02:36:39.375Z,0.00
2016-09-08T02:37:39.877Z,0.00
2016-09-08T02:38:40.365Z,0.00
2016-09-08T02:39:41.009Z,0.00
2016-09-08T02:40:41.509Z,0.00
2016-09-08T02:41:41.887Z,0.00
2016-09-08T02:42:42.659Z,0.00
2016-09-08T02:43:42.912Z,0.00
2016-09-08T02:44:43.678Z,0.00
2016-09-08T02:45:43.902Z,0.00
2016-09-08T02:46:44.382Z,0.00
2016-09-08T02:47:44.906Z,0.00
2016-09-08T02:48:45.542Z,0.00
2016-09-08T02:49:46.034Z,0.00
2016-09-08T02:50:46.388Z,0.00
2016-09-08T02:51:46.897Z,0.00
2016-09-08T02:52:47.518Z,0.00
2016-09-08T02:53:47.895Z,0.00
2016-09-08T02:54:48.689Z,0.00
2016-09-08T02:55:48.901Z,0.00
2016-09-08T02:56:49.379Z,0.00
2016-09-08T02:57:49.894Z,0.00
2016-09-08T02:58:54.739Z,0.00
2016-09-08T02:59:50.888Z,0.00
2016-09-08T03:00:51.389Z,0.00
2016-09-08T03:01:51.895Z,0.00
2016-09-08T03:02:52.532Z,0.00
2016-09-08T03:03:53.050Z,0.00
2016-09-08T03:04:53.388Z,0.00
2016-09-08T03:05:53.910Z,0.00
2016-09-08T03:06:54.398Z,0.00
2016-09-08T03:07:55.197Z,0.00
2016-09-08T03:08:55.526Z,0.00
2016-09-08T03:09:55.894Z,0.00
2016-09-08T03:10:56.524Z,0.00
2016-09-08T03:11:56.881Z,0.00
2016-09-08T03:12:57.373Z,0.00
2016-09-08T03:13:58.036Z,0.00
2016-09-08T03:14:58.375Z,0.00
2016-09-08T03:15:59.019Z,0.00
2016-09-08T03:16:59.548Z,0.00
2016-09-08T03:17:59.922Z,0.00
2016-09-08T03:19:00.400Z,0.00
2016-09-08T03:20:01.017Z,0.00
2016-09-08T03:21:01.390Z,0.00
2016-09-08T03:22:02.182Z,0.00
2016-09-08T03:23:02.369Z,0.00
2016-09-08T03:24:03.020Z,0.00
2016-09-08T03:25:03.372Z,0.00
2016-09-08T03:26:04.012Z,0.00
2016-09-08T03:27:04.380Z,0.00
2016-09-08T03:28:04.880Z,0.00
2016-09-08T03:29:05.394Z,0.00
2016-09-08T03:30:05.859Z,0.00
2016-09-08T03:31:06.399Z,0.00
2016-09-08T03:32:07.007Z,0.00
2016-09-08T03:33:07.519Z,0.00
2016-09-08T03:34:07.860Z,0.00
2016-09-08T03:35:08.522Z,0.00
2016-09-08T03:36:09.025Z,0.00
2016-09-08T03:37:09.368Z,0.00
2016-09-08T03:38:10.049Z,0.00
2016-09-08T03:39:10.368Z,0.00
2016-09-08T03:40:10.876Z,0.00
2016-09-08T03:41:11.517Z,0.00
2016-09-08T03:42:11.889Z,0.00
2016-09-08T03:43:12.378Z,0.00
2016-09-08T03:44:13.041Z,0.00
2016-09-08T03:45:13.383Z,0.00
2016-09-08T03:46:13.886Z,0.00
2016-09-08T03:47:14.407Z,0.00
2016-09-08T03:48:14.864Z,0.00
2016-09-08T03:49:15.371Z,0.00
2016-09-08T03:50:16.060Z,0.00
2016-09-08T03:51:16.411Z,0.00
2016-09-08T03:52:16.888Z,0.00
2016-09-08T03:53:17.528Z,0.00
2016-09-08T03:54:17.859Z,0.00
2016-09-08T03:55:18.660Z,0.00
2016-09-08T03:56:19.026Z,0.00
2016-09-08T03:57:19.380Z,0.00
2016-09-08T03:58:20.008Z,0.00
2016-09-08T03:59:20.509Z,0.00
2016-09-08T04:00:21.014Z,0.00
2016-09-08T04:01:21.656Z,0.00
2016-09-08T04:02:21.861Z,0.00
2016-09-08T04:03:22.360Z,0.00
2016-09-08T04:04:23.165Z,0.00
2016-09-08T04:05:23.518Z,0.00
2016-09-08T04:06:23.880Z,0.00
2016-09-08T04:07:24.375Z,0.00
2016-09-08T04:08:24.865Z,0.00
2016-09-08T04:09:25.515Z,0.00
2016-09-08T04:10:26.045Z,0.00
2016-09-08T04:11:26.404Z,0.00
2016-09-08T04:12:26.872Z,0.00
2016-09-08T04:13:27.423Z,0.00
2016-09-08T04:14:27.898Z,0.00
2016-09-08T04:15:28.676Z,0.00
2016-09-08T04:16:28.924Z,0.00
2016-09-08T04:17:29.388Z,0.00
2016-09-08T04:18:30.046Z,0.00
2016-09-08T04:19:30.392Z,0.00
2016-09-08T04:20:31.189Z,0.00
2016-09-08T04:21:31.387Z,0.00
2016-09-08T04:22:32.047Z,0.00
2016-09-08T04:23:32.416Z,0.00
2016-09-08T04:24:33.060Z,0.00
2016-09-08T04:25:33.544Z,0.00
2016-09-08T04:26:33.915Z,0.00
2016-09-08T04:27:34.404Z,0.00
2016-09-08T04:28:35.051Z,0.00
2016-09-08T04:29:35.542Z,0.00
2016-09-08T04:30:36.059Z,0.20
2016-09-08T04:31:36.398Z,0.00
2016-09-08T04:32:37.200Z,0.00
2016-09-08T04:33:37.430Z,0.10
2016-09-08T04:34:38.205Z,0.10
2016-09-08T04:35:38.438Z,0.00
2016-09-08T04:36:38.916Z,0.00
2016-09-08T04:37:39.553Z,0.00
2016-09-08T04:38:39.911Z,0.00
2016-09-08T04:39:40.572Z,0.00
2016-09-08T04:40:41.075Z,0.00
2016-09-08T04:41:41.579Z,0.00
2016-09-08T04:42:42.061Z,0.00
2016-09-08T04:43:42.423Z,0.00
2016-09-08T04:44:42.912Z,0.00
2016-09-08T04:45:43.440Z,0.00
2016-09-08T04:46:43.922Z,0.00
2016-09-08T04:47:44.574Z,0.00
2016-09-08T04:48:44.924Z,0.00
2016-09-08T04:49:45.573Z,0.00
2016-09-08T04:50:45.950Z,0.00
2016-09-08T04:51:46.590Z,0.00
2016-09-08T04:52:47.090Z,0.00
2016-09-08T04:53:47.427Z,0.00
2016-09-08T04:54:47.965Z,0.00
2016-09-08T04:55:48.629Z,0.00
2016-09-08T04:56:49.233Z,0.00
2016-09-08T04:57:49.583Z,0.00
2016-09-08T04:58:49.973Z,0.00
2016-09-08T04:59:50.590Z,0.00
2016-09-08T05:00:51.082Z,0.00
2016-09-08T05:01:51.733Z,0.00
2016-09-08T05:02:52.087Z,0.00
2016-09-08T05:03:52.455Z,0.00
2016-09-08T05:04:53.257Z,0.00
2016-09-08T05:05:53.458Z,0.00
2016-09-08T05:06:53.945Z,0.00
2016-09-08T05:07:54.482Z,0.00
2016-09-08T05:08:55.098Z,0.00
2016-09-08T05:09:55.585Z,0.00
2016-09-08T05:10:55.940Z,0.00
2016-09-08T05:11:56.467Z,0.00
2016-09-08T05:12:56.964Z,0.00
2016-09-08T05:13:57.586Z,0.00
2016-09-08T05:14:58.081Z,0.00
2016-09-08T05:15:58.458Z,0.00
2016-09-08T05:16:58.940Z,0.00
2016-09-08T05:17:59.443Z,0.00
2016-09-08T05:19:00.108Z,0.00
2016-09-08T05:20:00.605Z,0.00
2016-09-08T05:21:00.939Z,0.00
2016-09-08T05:22:01.448Z,0.00
2016-09-08T05:23:01.999Z,0.00
2016-09-08T05:24:02.600Z,0.00
2016-09-08T05:25:03.117Z,0.00
2016-09-08T05:26:03.765Z,0.00
2016-09-08T05:27:03.988Z,0.00
2016-09-08T05:28:04.477Z,0.00
2016-09-08T05:29:04.973Z,0.00
2016-09-08T05:30:05.613Z,0.00
2016-09-08T05:31:05.968Z,0.00
2016-09-08T05:32:06.496Z,0.00
2016-09-08T05:33:07.115Z,0.00
2016-09-08T05:34:07.617Z,0.00
2016-09-08T05:35:08.117Z,0.00
2016-09-08T05:36:08.618Z,0.00
2016-09-08T05:37:09.008Z,0.00
2016-09-08T05:38:09.493Z,0.00
2016-09-08T05:39:09.985Z,0.00
2016-09-08T05:40:10.515Z,0.00
2016-09-08T05:41:11.003Z,0.00
2016-09-08T05:42:11.464Z,0.00
2016-09-08T05:43:12.264Z,0.00
2016-09-08T05:44:12.616Z,0.00
2016-09-08T05:45:13.156Z,0.00
2016-09-08T05:46:13.489Z,0.00
2016-09-08T05:47:13.967Z,0.00
2016-09-08T05:48:15.829Z,0.00
2016-09-08T05:49:14.994Z,0.00
2016-09-08T05:50:15.626Z,0.00
2016-09-08T05:51:15.980Z,0.00
2016-09-08T05:52:16.489Z,0.00
2016-09-08T05:53:16.978Z,0.00
2016-09-08T05:54:17.650Z,0.00
2016-09-08T05:55:18.132Z,0.00
2016-09-08T05:56:18.467Z,0.00
2016-09-08T05:57:19.006Z,0.00
2016-09-08T05:58:19.487Z,0.00
2016-09-08T05:59:20.278Z,0.00
2016-09-08T06:00:20.641Z,0.00
2016-09-08T06:01:21.000Z,0.00
2016-09-08T06:02:21.509Z,0.00
2016-09-08T06:03:21.980Z,0.00
2016-09-08T06:04:22.493Z,0.00
2016-09-08T06:05:23.157Z,0.00
2016-09-08T06:06:23.658Z,0.00
2016-09-08T06:07:24.129Z,0.00
2016-09-08T06:08:24.496Z,0.00
2016-09-08T06:09:25.011Z,0.00
2016-09-08T06:10:25.654Z,0.00
2016-09-08T06:11:26.003Z,0.00
2016-09-08T06:12:26.533Z,0.00
2016-09-08T06:13:26.997Z,0.00
2016-09-08T06:14:27.495Z,0.00
2016-09-08T06:15:28.005Z,0.00
2016-09-08T06:16:28.691Z,0.00
2016-09-08T06:17:29.008Z,0.00
2016-09-08T06:18:29.477Z,0.00
2016-09-08T06:19:29.972Z,0.00
2016-09-08T06:20:30.776Z,0.00
2016-09-08T06:21:30.978Z,0.00
2016-09-08T06:22:31.479Z,0.00
2016-09-08T06:23:32.124Z,0.00
2016-09-08T06:24:32.485Z,0.00
2016-09-08T06:25:33.024Z,0.00
2016-09-08T06:26:33.503Z,0.00
2016-09-08T06:27:34.123Z,0.00
2016-09-08T06:28:34.623Z,0.00
2016-09-08T06:29:34.989Z,0.00
2016-09-08T06:30:35.508Z,0.00
2016-09-08T06:31:35.970Z,0.00
2016-09-08T06:32:36.477Z,0.00
2016-09-08T06:33:36.972Z,0.00
2016-09-08T06:34:37.625Z,0.00
2016-09-08T06:35:37.971Z,0.00
2016-09-08T06:36:39.671Z,0.00
2016-09-08T06:37:38.981Z,0.00
2016-09-08T06:38:39.629Z,0.00
2016-09-08T06:39:39.981Z,0.00
2016-09-08T06:40:40.663Z,0.00
2016-09-08T06:41:41.139Z,0.00
2016-09-08T06:42:41.659Z,0.00
2016-09-08T06:43:42.140Z,0.00
2016-09-08T06:44:42.660Z,0.00
2016-09-08T06:45:43.129Z,0.00
2016-09-08T06:46:43.653Z,0.00
2016-09-08T06:47:44.137Z,0.00
2016-09-08T06:48:44.507Z,0.00
2016-09-08T06:49:45.278Z,0.00
2016-09-08T06:50:45.484Z,0.00
2016-09-08T06:51:45.985Z,0.00
2016-09-08T06:52:46.778Z,0.00
2016-09-08T06:53:47.128Z,0.00
2016-09-08T06:54:47.625Z,0.00
2016-09-08T06:55:48.155Z,0.00
2016-09-08T06:56:48.515Z,0.00
2016-09-08T06:57:49.006Z,0.00
2016-09-08T06:58:49.626Z,0.00
2016-09-08T06:59:50.277Z,0.00
2016-09-08T07:00:50.624Z,0.00
2016-09-08T07:01:51.119Z,0.00
2016-09-08T07:02:51.505Z,0.00
2016-09-08T07:03:51.971Z,0.00
2016-09-08T07:04:52.477Z,0.00
2016-09-08T07:05:52.999Z,0.00
2016-09-08T07:06:53.485Z,0.00
2016-09-08T07:07:53.996Z,0.00
2016-09-08T07:08:54.491Z,0.00
2016-09-08T07:09:55.154Z,0.00
2016-09-08T07:10:55.640Z,0.00
2016-09-08T07:11:56.897Z,0.00
2016-09-08T07:12:56.649Z,0.00
2016-09-08T07:13:56.985Z,0.00
2016-09-08T07:14:57.489Z,0.00
2016-09-08T07:15:58.140Z,0.00
2016-09-08T07:16:58.663Z,0.00
2016-09-08T07:17:58.990Z,0.00
2016-09-08T07:18:59.522Z,0.00
2016-09-08T07:20:00.161Z,0.00
2016-09-08T07:21:00.640Z,0.00
2016-09-08T07:22:01.158Z,0.00
2016-09-08T07:23:01.519Z,0.00
2016-09-08T07:24:02.030Z,0.00
2016-09-08T07:25:02.641Z,0.00
2016-09-08T07:26:05.251Z,0.00
2016-09-08T07:27:03.514Z,0.10
2016-09-08T07:28:03.993Z,0.00
2016-09-08T07:29:04.541Z,0.00
2016-09-08T07:30:05.014Z,0.00
2016-09-08T07:31:05.648Z,0.10
2016-09-08T07:32:06.143Z,0.70
2016-09-08T07:33:06.518Z,1.10
2016-09-08T07:34:07.148Z,0.60
2016-09-08T07:35:07.645Z,0.00
2016-09-08T07:36:08.017Z,0.00
2016-09-08T07:37:08.659Z,0.00
2016-09-08T07:38:08.995Z,0.00
2016-09-08T07:39:09.651Z,0.00
2016-09-08T07:40:10.011Z,0.00
2016-09-08T07:41:10.552Z,0.00
2016-09-08T07:42:11.028Z,0.00
2016-09-08T07:43:11.547Z,0.00
2016-09-08T07:44:12.053Z,0.00
2016-09-08T07:45:12.563Z,0.00
2016-09-08T07:46:13.108Z,0.00
2016-09-08T07:47:13.621Z,0.00
2016-09-08T07:48:14.139Z,0.00
2016-09-08T07:49:14.641Z,0.00
2016-09-08T07:50:15.152Z,0.00
2016-09-08T07:51:15.820Z,0.00
2016-09-08T07:52:16.184Z,0.00
2016-09-08T07:53:16.696Z,0.00
2016-09-08T07:54:17.215Z,0.00
2016-09-08T07:55:17.731Z,0.00
2016-09-08T07:56:18.242Z,0.00
2016-09-08T07:57:18.749Z,0.00
2016-09-08T07:58:19.264Z,0.00
2016-09-08T07:59:19.782Z,0.00
2016-09-08T08:00:20.302Z,0.10
2016-09-08T08:01:20.823Z,0.30
2016-09-08T08:02:21.318Z,0.00
2016-09-08T08:03:21.827Z,0.00
2016-09-08T08:04:22.365Z,0.00
2016-09-08T08:05:22.857Z,0.00
2016-09-08T08:06:23.367Z,0.00
2016-09-08T08:07:23.881Z,0.00
2016-09-08T08:08:24.394Z,0.00
2016-09-08T08:09:24.911Z,0.00
2016-09-08T08:10:25.422Z,0.00
2016-09-08T08:11:26.090Z,0.00
2016-09-08T08:12:26.452Z,0.00
2016-09-08T08:13:26.965Z,0.00
2016-09-08T08:14:27.480Z,0.00
2016-09-08T08:15:27.994Z,0.00
2016-09-08T08:16:28.506Z,0.00
2016-09-08T08:17:29.020Z,0.00
2016-09-08T08:18:29.534Z,0.00
2016-09-08T08:19:30.197Z,0.00
2016-09-08T08:20:30.562Z,0.00
2016-09-08T08:21:31.083Z,0.00
2016-09-08T08:22:31.588Z,0.00
2016-09-08T08:23:32.107Z,0.00
2016-09-08T08:24:32.620Z,0.00
2016-09-08T08:25:33.138Z,0.00
2016-09-08T08:26:33.657Z,0.00
2016-09-08T08:27:34.182Z,0.80
2016-09-08T08:28:34.686Z,0.10
2016-09-08T08:29:35.205Z,0.00
2016-09-08T08:30:35.717Z,0.00
2016-09-08T08:31:36.234Z,0.00
2016-09-08T08:32:36.748Z,0.00
2016-09-08T08:33:37.260Z,0.00
2016-09-08T08:34:37.779Z,0.00
2016-09-08T08:35:38.441Z,0.00
2016-09-08T08:36:38.812Z,0.00
2016-09-08T08:37:39.338Z,0.00
2016-09-08T08:38:39.983Z,0.00
2016-09-08T08:39:40.387Z,0.00
2016-09-08T08:40:40.864Z,0.00
2016-09-08T08:41:41.529Z,0.00
2016-09-08T08:42:41.891Z,0.00
2016-09-08T08:43:42.428Z,0.40
2016-09-08T08:44:44.887Z,0.00
2016-09-08T08:45:43.434Z,0.00
2016-09-08T08:46:43.949Z,0.00
2016-09-08T08:47:44.463Z,0.00
2016-09-08T08:48:44.976Z,0.00
2016-09-08T08:49:45.492Z,0.00
2016-09-08T08:50:46.006Z,0.00
2016-09-08T08:51:46.671Z,0.10
2016-09-08T08:52:47.063Z,0.00
2016-09-08T08:53:47.550Z,0.00
2016-09-08T08:54:48.061Z,0.00
2016-09-08T08:55:48.577Z,0.00
2016-09-08T08:56:49.102Z,0.20
2016-09-08T08:57:49.605Z,0.00
2016-09-08T08:58:50.119Z,0.20
2016-09-08T08:59:50.650Z,0.00
2016-09-08T09:00:51.147Z,0.30
2016-09-08T09:01:51.663Z,0.70
2016-09-08T09:02:52.330Z,0.40
2016-09-08T09:03:52.697Z,0.00
2016-09-08T09:04:53.216Z,0.00
2016-09-08T09:05:53.728Z,0.00
2016-09-08T09:06:54.239Z,0.00
2016-09-08T09:07:54.759Z,0.00
2016-09-08T09:08:55.270Z,0.00
2016-09-08T09:09:55.787Z,1.30
2016-09-08T09:10:56.300Z,0.00
2016-09-08T09:11:56.965Z,0.30
2016-09-08T09:12:57.336Z,0.80
2016-09-08T09:13:57.852Z,0.10
2016-09-08T09:14:58.378Z,0.00
2016-09-08T09:15:58.870Z,0.00
2016-09-08T09:16:59.411Z,0.00
2016-09-08T09:17:59.901Z,0.10
2016-09-08T09:19:00.557Z,0.00
2016-09-08T09:20:00.924Z,0.00
2016-09-08T09:21:01.437Z,0.00
2016-09-08T09:22:01.950Z,0.00
2016-09-08T09:23:02.471Z,0.00
2016-09-08T09:24:02.995Z,0.00
2016-09-08T09:25:03.488Z,0.00
2016-09-08T09:26:04.001Z,0.00
2016-09-08T09:27:04.511Z,0.00
2016-09-08T09:28:05.030Z,0.00
2016-09-08T09:29:05.543Z,0.00
2016-09-08T09:30:06.052Z,0.00
2016-09-08T09:31:06.566Z,0.00
2016-09-08T09:32:07.083Z,0.00
2016-09-08T09:33:07.622Z,0.00
2016-09-08T09:34:09.772Z,0.00
2016-09-08T09:35:08.623Z,0.10
2016-09-08T09:36:09.141Z,1.30
2016-09-08T09:37:09.665Z,0.90
2016-09-08T09:38:10.325Z,0.90
2016-09-08T09:39:10.697Z,0.60
2016-09-08T09:40:11.211Z,0.60
2016-09-08T09:41:11.729Z,0.40
2016-09-08T09:42:12.270Z,0.60
2016-09-08T09:43:12.755Z,0.10
2016-09-08T09:44:13.273Z,0.00
2016-09-08T09:45:13.786Z,0.10
2016-09-08T09:46:14.447Z,0.10
2016-09-08T09:47:14.813Z,0.00
2016-09-08T09:48:15.334Z,0.00
2016-09-08T09:49:15.867Z,0.50
2016-09-08T09:50:16.358Z,1.20
2016-09-08T09:51:16.864Z,0.20
2016-09-08T09:52:17.386Z,0.00
2016-09-08T09:53:17.912Z,0.00
2016-09-08T09:54:18.408Z,0.00
2016-09-08T09:55:18.919Z,0.00
2016-09-08T09:56:19.442Z,0.30
2016-09-08T09:57:19.950Z,0.60
2016-09-08T09:58:20.613Z,0.00
2016-09-08T09:59:20.976Z,0.00
2016-09-08T10:00:21.493Z,0.20
2016-09-08T10:01:22.029Z,0.00
2016-09-08T10:02:22.541Z,0.00
2016-09-08T10:03:23.034Z,0.00
2016-09-08T10:04:23.569Z,0.00
2016-09-08T10:05:24.064Z,0.10
2016-09-08T10:06:24.572Z,0.30
2016-09-08T10:07:25.242Z,0.00
2016-09-08T10:08:25.607Z,0.00
2016-09-08T10:09:26.117Z,0.00
2016-09-08T10:10:26.631Z,0.00
2016-09-08T10:11:27.146Z,0.00
2016-09-08T10:12:27.658Z,0.20
2016-09-08T10:13:28.173Z,0.60
2016-09-08T10:14:28.693Z,0.00
2016-09-08T10:15:29.215Z,0.20
2016-09-08T10:16:29.729Z,0.00
2016-09-08T10:17:30.242Z,0.00
2016-09-08T10:18:30.759Z,0.00
2016-09-08T10:19:31.275Z,0.00
2016-09-08T10:20:31.787Z,0.40
2016-09-08T10:21:32.301Z,1.50
2016-09-08T10:22:32.812Z,1.00
2016-09-08T10:23:33.327Z,0.00
2016-09-08T10:24:33.840Z,0.20
2016-09-08T10:25:34.352Z,0.00
2016-09-08T10:26:34.888Z,0.00
2016-09-08T10:27:35.380Z,0.30
2016-09-08T10:28:35.911Z,0.60
2016-09-08T10:29:36.410Z,0.20
2016-09-08T10:30:36.927Z,0.00
2016-09-08T10:31:37.444Z,0.00
2016-09-08T10:32:37.972Z,0.00
2016-09-08T10:33:38.471Z,0.20
2016-09-08T10:34:39.002Z,0.00
2016-09-08T10:35:39.643Z,1.10
2016-09-08T10:36:40.161Z,0.90
2016-09-08T10:37:40.562Z,0.00
2016-09-08T10:38:41.043Z,0.00
2016-09-08T10:39:41.557Z,0.00
2016-09-08T10:40:42.075Z,0.00
2016-09-08T10:41:43.785Z,0.40
2016-09-08T10:42:43.100Z,0.00
2016-09-08T10:43:43.616Z,0.00
2016-09-08T10:44:44.135Z,0.10
2016-09-08T10:45:44.656Z,0.00
2016-09-08T10:46:45.166Z,0.60
2016-09-08T10:47:45.679Z,0.70
2016-09-08T10:48:46.191Z,0.60
2016-09-08T10:49:46.707Z,0.00
2016-09-08T10:50:47.223Z,0.00
2016-09-08T10:51:47.888Z,0.00
2016-09-08T10:52:48.263Z,0.00
2016-09-08T10:53:48.774Z,0.40
2016-09-08T10:54:49.286Z,0.00
2016-09-08T10:55:49.807Z,0.00
2016-09-08T10:56:50.316Z,0.00
2016-09-08T10:57:50.829Z,0.00
2016-09-08T10:58:51.346Z,0.00
2016-09-08T10:59:51.860Z,0.10
2016-09-08T11:00:52.365Z,0.00
2016-09-08T11:01:52.899Z,0.00
2016-09-08T11:02:53.394Z,0.00
2016-09-08T11:03:53.912Z,0.30
2016-09-08T11:04:54.427Z,0.30
2016-09-08T11:05:54.955Z,0.00
2016-09-08T11:06:55.456Z,0.10
2016-09-08T11:07:55.972Z,0.00
2016-09-08T11:08:56.485Z,0.00
2016-09-08T11:09:57.002Z,0.20
2016-09-08T11:10:57.539Z,0.40
2016-09-08T11:11:58.059Z,0.00
2016-09-08T11:12:58.544Z,0.40
2016-09-08T11:13:59.056Z,0.00
2016-09-08T11:14:59.571Z,0.00
2016-09-08T11:16:00.087Z,0.00
2016-09-08T11:17:00.748Z,1.60
2016-09-08T11:18:01.121Z,1.80
2016-09-08T11:19:01.628Z,0.00
2016-09-08T11:20:02.290Z,0.00
2016-09-08T11:21:02.648Z,0.30
2016-09-08T11:22:03.191Z,0.00
2016-09-08T11:23:03.683Z,0.00
2016-09-08T11:24:04.193Z,0.50
2016-09-08T11:25:04.706Z,0.10
2016-09-08T11:26:05.224Z,0.00
2016-09-08T11:27:05.741Z,0.10
2016-09-08T11:28:06.263Z,0.10
2016-09-08T11:29:06.807Z,0.00
2016-09-08T11:30:07.446Z,0.00
2016-09-08T11:31:07.961Z,0.00
2016-09-08T11:32:08.323Z,0.80
2016-09-08T11:33:08.859Z,1.00
2016-09-08T11:34:09.353Z,0.90
2016-09-08T11:35:09.869Z,1.10
2016-09-08T11:36:10.407Z,0.70
2016-09-08T11:37:10.898Z,0.20
2016-09-08T11:38:11.411Z,0.50
2016-09-08T11:39:11.924Z,0.50
2016-09-08T11:40:12.438Z,0.30
2016-09-08T11:41:12.963Z,1.60
2016-09-08T11:42:14.220Z,1.40
2016-09-08T11:43:13.981Z,0.30
2016-09-08T11:44:14.646Z,0.00
2016-09-08T11:45:15.006Z,0.80
2016-09-08T11:46:15.525Z,0.00
2016-09-08T11:47:16.035Z,0.80
2016-09-08T11:48:16.551Z,0.10
2016-09-08T11:49:17.066Z,0.20
2016-09-08T11:50:17.577Z,1.20
2016-09-08T11:51:18.107Z,1.50
2016-09-08T11:52:18.611Z,0.80
2016-09-08T11:53:19.126Z,0.30
2016-09-08T11:54:19.636Z,0.20
2016-09-08T11:55:20.153Z,0.00
2016-09-08T11:56:20.697Z,0.70
2016-09-08T11:57:21.175Z,0.50
2016-09-08T11:58:21.691Z,0.40
2016-09-08T11:59:22.214Z,0.80
2016-09-08T12:00:22.721Z,0.00
2016-09-08T12:01:23.257Z,0.10
2016-09-08T12:02:23.756Z,0.50
2016-09-08T12:03:24.269Z,0.90
2016-09-08T12:04:24.787Z,0.80
2016-09-08T12:05:25.306Z,1.20
2016-09-08T12:06:25.819Z,1.10
2016-09-08T12:07:26.338Z,1.20
2016-09-08T12:08:26.849Z,0.00
2016-09-08T12:09:27.366Z,0.50
2016-09-08T12:10:27.877Z,0.60
2016-09-08T12:11:28.422Z,0.60
2016-09-08T12:12:28.907Z,0.50
2016-09-08T12:13:29.423Z,0.10
2016-09-08T12:14:29.938Z,0.30
2016-09-08T12:15:30.453Z,0.30
2016-09-08T12:16:30.967Z,1.00
2016-09-08T12:17:31.480Z,1.20
2016-09-08T12:18:31.992Z,2.30
2016-09-08T12:19:32.506Z,1.90
2016-09-08T12:20:33.076Z,0.30
2016-09-08T12:21:33.555Z,1.00
2016-09-08T12:22:34.045Z,0.30
2016-09-08T12:23:34.559Z,1.50
2016-09-08T12:24:35.079Z,1.20
2016-09-08T12:25:35.590Z,0.20
2016-09-08T12:26:36.102Z,0.50
2016-09-08T12:27:36.616Z,1.50
2016-09-08T12:28:37.127Z,1.20
2016-09-08T12:29:37.644Z,0.90
2016-09-08T12:30:38.301Z,0.40
2016-09-08T12:31:38.814Z,0.10
2016-09-08T12:32:39.186Z,1.00
2016-09-08T12:33:39.847Z,0.60
2016-09-08T12:34:40.358Z,0.40
2016-09-08T12:35:40.879Z,0.00
2016-09-08T12:36:41.273Z,1.10
2016-09-08T12:37:41.760Z,0.90
2016-09-08T12:38:42.275Z,0.20
2016-09-08T12:39:42.789Z,1.20
2016-09-08T12:40:43.461Z,1.40
2016-09-08T12:41:43.980Z,1.70
2016-09-08T12:42:44.344Z,0.30
2016-09-08T12:43:44.862Z,0.30
2016-09-08T12:44:45.377Z,0.40
2016-09-08T12:45:45.899Z,0.20
2016-09-08T12:46:46.412Z,0.00
2016-09-08T12:47:46.930Z,0.30
2016-09-08T12:48:47.445Z,0.70
2016-09-08T12:49:47.955Z,0.10
2016-09-08T12:50:48.501Z,0.60
2016-09-08T12:51:49.003Z,0.70
2016-09-08T12:52:49.501Z,0.20
2016-09-08T12:53:50.014Z,0.50
2016-09-08T12:54:50.527Z,0.00
2016-09-08T12:55:51.041Z,0.00
2016-09-08T12:56:51.588Z,0.00
2016-09-08T12:57:52.073Z,0.00
2016-09-08T12:58:52.586Z,0.00
2016-09-08T12:59:53.100Z,0.00
2016-09-08T13:00:53.617Z,0.80
2016-09-08T13:01:54.279Z,0.00
2016-09-08T13:02:54.644Z,0.00
2016-09-08T13:03:55.167Z,1.10
2016-09-08T13:04:55.671Z,0.80
2016-09-08T13:05:56.189Z,0.80
2016-09-08T13:06:56.701Z,0.00
2016-09-08T13:07:57.216Z,0.00
2016-09-08T13:08:57.724Z,0.10
2016-09-08T13:09:58.242Z,0.00
2016-09-08T13:10:58.906Z,0.00
2016-09-08T13:11:59.270Z,0.00
2016-09-08T13:12:59.789Z,0.10
2016-09-08T13:14:00.302Z,0.00
2016-09-08T13:15:00.965Z,0.00
2016-09-08T13:16:01.334Z,0.00
2016-09-08T13:17:01.851Z,0.00
2016-09-08T13:18:02.373Z,0.00
2016-09-08T13:19:02.915Z,0.00
2016-09-08T13:20:03.570Z,0.00
2016-09-08T13:21:03.919Z,0.00
2016-09-08T13:22:04.439Z,0.00
2016-09-08T13:23:04.950Z,0.00
2016-09-08T13:24:05.468Z,0.20
2016-09-08T13:25:05.982Z,0.10